TAM3263 SBGR-SBBR
Flight info
| Callsign | TAM3263 |
|---|---|
| Flight time | 1h 18m |
| Altitude | 34000 |
| Route | ISMOB UZ26 AZOIC |
| Aircraft | A21N/M-SDE2E3FGHIJ1RWXY/LB1 |
Departure
| Time | 2026-05-05 10:13 |
|---|---|
| Airport | São Paulo/Guarulhos–Governor André Franco Montoro International Airport (SBGR) |
Arrival
| Time | 2026-05-05 11:32 |
|---|---|
| Airport | Presidente Juscelino Kubitschek International Airport (SBBR) |
| Time | Latitude | Longitude | Altitude | Speed | Heading |
|---|---|---|---|---|---|
| 2026-05-05 09:42 | -23.42834 | -46.47935 | 2474 ft | 0 kts | 265° |
| 2026-05-05 10:04 | -23.42833 | -46.47920 | 2474 ft | 3 kts | 258° |
| 2026-05-05 10:04 | -23.42826 | -46.47898 | 2474 ft | 3 kts | 237° |
| 2026-05-05 10:04 | -23.42812 | -46.47882 | 2474 ft | 3 kts | 202° |
| 2026-05-05 10:04 | -23.42796 | -46.47879 | 2474 ft | 1 kts | 169° |
| 2026-05-05 10:05 | -23.42792 | -46.47880 | 2474 ft | 0 kts | 169° |
| 2026-05-05 10:09 | -23.42816 | -46.47875 | 2474 ft | 11 kts | 168° |
| 2026-05-05 10:09 | -23.42894 | -46.47840 | 2474 ft | 13 kts | 159° |
| 2026-05-05 10:10 | -23.42988 | -46.47816 | 2473 ft | 15 kts | 168° |
| 2026-05-05 10:10 | -23.43065 | -46.47797 | 2474 ft | 0 kts | 165° |
| 2026-05-05 10:10 | -23.43083 | -46.47797 | 2474 ft | 5 kts | 188° |
| 2026-05-05 10:10 | -23.43121 | -46.47838 | 2474 ft | 11 kts | 250° |
| 2026-05-05 10:11 | -23.43150 | -46.47938 | 2474 ft | 16 kts | 253° |
| 2026-05-05 10:11 | -23.43187 | -46.48074 | 2474 ft | 21 kts | 256° |
| 2026-05-05 10:11 | -23.43227 | -46.48233 | 2475 ft | 22 kts | 253° |
| 2026-05-05 10:11 | -23.43263 | -46.48334 | 2475 ft | 14 kts | 224° |
| 2026-05-05 10:12 | -23.43354 | -46.48347 | 2475 ft | 7 kts | 160° |
| 2026-05-05 10:12 | -23.43401 | -46.48319 | 2475 ft | 9 kts | 125° |
| 2026-05-05 10:12 | -23.43408 | -46.48252 | 2475 ft | 10 kts | 72° |
| 2026-05-05 10:12 | -23.43379 | -46.48147 | 2475 ft | 33 kts | 73° |
| 2026-05-05 10:13 | -23.43246 | -46.47649 | 2474 ft | 101 kts | 73° |
| 2026-05-05 10:13 | -23.42997 | -46.46737 | 2477 ft | 144 kts | 73° |
| 2026-05-05 10:13 | -23.42695 | -46.45590 | 2645 ft | 164 kts | 75° |
| 2026-05-05 10:13 | -23.42389 | -46.44404 | 3185 ft | 163 kts | 70° |
| 2026-05-05 10:14 | -23.41988 | -46.43233 | 3620 ft | 168 kts | 69° |
| 2026-05-05 10:14 | -23.41625 | -46.42007 | 4049 ft | 172 kts | 70° |
| 2026-05-05 10:14 | -23.41266 | -46.40756 | 4498 ft | 176 kts | 70° |
| 2026-05-05 10:14 | -23.40879 | -46.39414 | 4819 ft | 196 kts | 71° |
| 2026-05-05 10:15 | -23.40458 | -46.37943 | 5174 ft | 213 kts | 71° |
| 2026-05-05 10:15 | -23.39977 | -46.36366 | 5648 ft | 226 kts | 66° |
| 2026-05-05 10:15 | -23.39189 | -46.34805 | 6034 ft | 248 kts | 57° |
| 2026-05-05 10:15 | -23.38215 | -46.33150 | 6425 ft | 271 kts | 57° |
| 2026-05-05 10:16 | -23.37176 | -46.31376 | 6953 ft | 284 kts | 57° |
| 2026-05-05 10:16 | -23.36110 | -46.29551 | 7672 ft | 289 kts | 57° |
| 2026-05-05 10:16 | -23.35029 | -46.27694 | 8459 ft | 292 kts | 58° |
| 2026-05-05 10:16 | -23.33940 | -46.25815 | 9246 ft | 295 kts | 58° |
| 2026-05-05 10:17 | -23.32839 | -46.23916 | 10027 ft | 298 kts | 58° |
| 2026-05-05 10:17 | -23.31716 | -46.21984 | 10594 ft | 309 kts | 58° |
| 2026-05-05 10:17 | -23.30549 | -46.19973 | 10945 ft | 326 kts | 58° |
| 2026-05-05 10:17 | -23.29293 | -46.17811 | 11392 ft | 339 kts | 58° |
| 2026-05-05 10:18 | -23.28041 | -46.15657 | 12036 ft | 343 kts | 58° |
| 2026-05-05 10:18 | -23.26758 | -46.13451 | 12733 ft | 347 kts | 58° |
| 2026-05-05 10:18 | -23.25463 | -46.11220 | 13453 ft | 350 kts | 59° |
| 2026-05-05 10:18 | -23.24155 | -46.08972 | 14144 ft | 354 kts | 59° |
| 2026-05-05 10:19 | -23.22829 | -46.06700 | 14746 ft | 358 kts | 58° |
| 2026-05-05 10:19 | -23.21265 | -46.04574 | 15326 ft | 364 kts | 45° |
| 2026-05-05 10:19 | -23.19203 | -46.02964 | 15887 ft | 369 kts | 25° |
| 2026-05-05 10:19 | -23.16748 | -46.02117 | 16462 ft | 373 kts | 8° |
| 2026-05-05 10:20 | -23.14150 | -46.02094 | 17036 ft | 375 kts | 350° |
| 2026-05-05 10:20 | -23.11654 | -46.02903 | 17599 ft | 375 kts | 332° |
| 2026-05-05 10:20 | -23.09519 | -46.04509 | 18171 ft | 374 kts | 313° |
| 2026-05-05 10:20 | -23.07811 | -46.06632 | 18734 ft | 374 kts | 306° |
| 2026-05-05 10:21 | -23.06181 | -46.08856 | 19240 ft | 378 kts | 305° |
| 2026-05-05 10:21 | -23.04521 | -46.11100 | 19745 ft | 382 kts | 306° |
| 2026-05-05 10:21 | -23.02821 | -46.13334 | 20258 ft | 385 kts | 306° |
| 2026-05-05 10:21 | -23.01097 | -46.15579 | 20769 ft | 389 kts | 306° |
| 2026-05-05 10:22 | -22.99357 | -46.17851 | 21265 ft | 393 kts | 306° |
| 2026-05-05 10:22 | -22.97608 | -46.20141 | 21757 ft | 396 kts | 306° |
| 2026-05-05 10:22 | -22.95838 | -46.22448 | 22236 ft | 399 kts | 306° |
| 2026-05-05 10:22 | -22.94047 | -46.24780 | 22733 ft | 402 kts | 306° |
| 2026-05-05 10:23 | -22.92275 | -46.27093 | 23195 ft | 405 kts | 306° |
| 2026-05-05 10:23 | -22.90488 | -46.29477 | 23663 ft | 408 kts | 302° |
| 2026-05-05 10:23 | -22.89040 | -46.32102 | 24075 ft | 406 kts | 292° |
| 2026-05-05 10:23 | -22.87799 | -46.34862 | 24498 ft | 406 kts | 291° |
| 2026-05-05 10:24 | -22.86579 | -46.37633 | 24925 ft | 408 kts | 291° |
| 2026-05-05 10:24 | -22.85349 | -46.40411 | 25392 ft | 409 kts | 291° |
| 2026-05-05 10:24 | -22.84117 | -46.43198 | 25849 ft | 410 kts | 291° |
| 2026-05-05 10:24 | -22.82883 | -46.45994 | 26284 ft | 411 kts | 291° |
| 2026-05-05 10:25 | -22.81636 | -46.48790 | 26730 ft | 413 kts | 291° |
| 2026-05-05 10:25 | -22.80376 | -46.51589 | 27145 ft | 414 kts | 291° |
| 2026-05-05 10:25 | -22.79129 | -46.54401 | 27581 ft | 414 kts | 291° |
| 2026-05-05 10:25 | -22.77878 | -46.57222 | 27983 ft | 415 kts | 291° |
| 2026-05-05 10:26 | -22.76621 | -46.60051 | 28380 ft | 417 kts | 291° |
| 2026-05-05 10:26 | -22.75353 | -46.62883 | 28763 ft | 419 kts | 291° |
| 2026-05-05 10:26 | -22.74077 | -46.65723 | 29142 ft | 420 kts | 291° |
| 2026-05-05 10:26 | -22.72787 | -46.68578 | 29518 ft | 421 kts | 291° |
| 2026-05-05 10:27 | -22.71490 | -46.71434 | 29879 ft | 423 kts | 291° |
| 2026-05-05 10:27 | -22.70198 | -46.74298 | 30229 ft | 424 kts | 291° |
| 2026-05-05 10:27 | -22.68911 | -46.77172 | 30524 ft | 425 kts | 291° |
| 2026-05-05 10:27 | -22.67615 | -46.80059 | 30782 ft | 427 kts | 291° |
| 2026-05-05 10:28 | -22.66309 | -46.82959 | 31048 ft | 429 kts | 291° |
| 2026-05-05 10:28 | -22.64996 | -46.85865 | 31314 ft | 431 kts | 291° |
| 2026-05-05 10:28 | -22.63581 | -46.88739 | 31574 ft | 436 kts | 297° |
| 2026-05-05 10:28 | -22.61689 | -46.91336 | 31906 ft | 444 kts | 309° |
| 2026-05-05 10:29 | -22.59263 | -46.93438 | 32226 ft | 452 kts | 323° |
| 2026-05-05 10:29 | -22.56390 | -46.94897 | 32523 ft | 461 kts | 336° |
| 2026-05-05 10:29 | -22.53307 | -46.95908 | 32824 ft | 463 kts | 339° |
| 2026-05-05 10:29 | -22.50205 | -46.96853 | 33144 ft | 462 kts | 339° |
| 2026-05-05 10:30 | -22.47111 | -46.97811 | 33381 ft | 462 kts | 338° |
| 2026-05-05 10:30 | -22.44023 | -46.98790 | 33634 ft | 462 kts | 338° |
| 2026-05-05 10:30 | -22.40941 | -46.99780 | 33914 ft | 461 kts | 338° |
| 2026-05-05 10:30 | -22.37904 | -47.00762 | 34174 ft | 461 kts | 338° |
| 2026-05-05 10:31 | -22.31733 | -47.02756 | 34255 ft | 459 kts | 338° |
| 2026-05-05 10:31 | -22.25656 | -47.04728 | 34227 ft | 459 kts | 337° |
| 2026-05-05 10:32 | -22.19528 | -47.06738 | 34228 ft | 460 kts | 338° |
| 2026-05-05 10:32 | -22.14379 | -47.08364 | 34235 ft | 460 kts | 338° |
| 2026-05-05 10:33 | -22.08287 | -47.10325 | 34239 ft | 460 kts | 338° |
| 2026-05-05 10:33 | -22.02114 | -47.12327 | 34241 ft | 460 kts | 338° |
| 2026-05-05 10:34 | -21.96021 | -47.14275 | 34245 ft | 459 kts | 338° |
| 2026-05-05 10:34 | -21.89847 | -47.16235 | 34247 ft | 460 kts | 338° |
| 2026-05-05 10:35 | -21.83714 | -47.18199 | 34232 ft | 459 kts | 338° |
| 2026-05-05 10:35 | -21.77510 | -47.19910 | 34217 ft | 465 kts | 346° |
| 2026-05-05 10:36 | -21.71067 | -47.20763 | 34217 ft | 467 kts | 348° |
| 2026-05-05 10:36 | -21.64652 | -47.21580 | 34223 ft | 466 kts | 348° |
| 2026-05-05 10:37 | -21.58221 | -47.22424 | 34221 ft | 466 kts | 348° |
| 2026-05-05 10:37 | -21.51782 | -47.23271 | 34225 ft | 466 kts | 347° |
| 2026-05-05 10:38 | -21.45344 | -47.24116 | 34224 ft | 466 kts | 348° |
| 2026-05-05 10:38 | -21.38903 | -47.24952 | 34218 ft | 466 kts | 348° |
| 2026-05-05 10:39 | -21.32506 | -47.25917 | 34224 ft | 463 kts | 346° |
| 2026-05-05 10:39 | -21.26136 | -47.26985 | 34224 ft | 463 kts | 346° |
| 2026-05-05 10:40 | -21.19764 | -47.28047 | 34226 ft | 463 kts | 346° |
| 2026-05-05 10:40 | -21.13390 | -47.29110 | 34216 ft | 463 kts | 346° |
| 2026-05-05 10:41 | -21.07019 | -47.30170 | 34225 ft | 463 kts | 346° |
| 2026-05-05 10:41 | -21.00652 | -47.31232 | 34224 ft | 463 kts | 346° |
| 2026-05-05 10:42 | -20.91097 | -47.32828 | 34217 ft | 462 kts | 346° |
| 2026-05-05 10:43 | -20.84739 | -47.33885 | 34225 ft | 462 kts | 346° |
| 2026-05-05 10:43 | -20.78383 | -47.34940 | 34238 ft | 463 kts | 346° |
| 2026-05-05 10:44 | -20.72020 | -47.35995 | 34242 ft | 463 kts | 346° |
| 2026-05-05 10:44 | -20.65653 | -47.37047 | 34228 ft | 462 kts | 346° |
| 2026-05-05 10:45 | -20.59339 | -47.38098 | 34233 ft | 461 kts | 346° |
| 2026-05-05 10:45 | -20.52975 | -47.39092 | 34233 ft | 464 kts | 347° |
| 2026-05-05 10:46 | -20.46576 | -47.40038 | 34232 ft | 464 kts | 347° |
| 2026-05-05 10:46 | -20.40189 | -47.41020 | 34228 ft | 464 kts | 346° |
| 2026-05-05 10:47 | -20.33799 | -47.41972 | 34227 ft | 464 kts | 347° |
| 2026-05-05 10:47 | -20.27402 | -47.42920 | 34228 ft | 464 kts | 347° |
| 2026-05-05 10:48 | -20.20993 | -47.43882 | 34212 ft | 465 kts | 347° |
| 2026-05-05 10:48 | -20.14593 | -47.44845 | 34224 ft | 465 kts | 347° |
| 2026-05-05 10:49 | -20.08184 | -47.45811 | 34227 ft | 464 kts | 347° |
| 2026-05-05 10:49 | -20.01788 | -47.46767 | 34226 ft | 464 kts | 347° |
| 2026-05-05 10:50 | -19.95382 | -47.47717 | 34225 ft | 465 kts | 347° |
| 2026-05-05 10:50 | -19.88975 | -47.48674 | 34232 ft | 465 kts | 347° |
| 2026-05-05 10:51 | -19.82558 | -47.49635 | 34232 ft | 465 kts | 347° |
| 2026-05-05 10:51 | -19.76142 | -47.50603 | 34232 ft | 465 kts | 347° |
| 2026-05-05 10:52 | -19.69718 | -47.51540 | 34235 ft | 467 kts | 347° |
| 2026-05-05 10:52 | -19.63276 | -47.52485 | 34242 ft | 467 kts | 347° |
| 2026-05-05 10:53 | -19.56830 | -47.53433 | 34247 ft | 467 kts | 347° |
| 2026-05-05 10:53 | -19.50399 | -47.54375 | 34245 ft | 467 kts | 347° |
| 2026-05-05 10:54 | -19.43953 | -47.55310 | 34243 ft | 468 kts | 347° |
| 2026-05-05 10:54 | -19.37495 | -47.56253 | 34241 ft | 468 kts | 347° |
| 2026-05-05 10:55 | -19.31050 | -47.57190 | 34239 ft | 468 kts | 347° |
| 2026-05-05 10:55 | -19.24606 | -47.58132 | 34240 ft | 468 kts | 347° |
| 2026-05-05 10:56 | -19.18154 | -47.59072 | 34240 ft | 468 kts | 347° |
| 2026-05-05 10:56 | -19.11697 | -47.60006 | 34236 ft | 469 kts | 347° |
| 2026-05-05 10:57 | -19.05224 | -47.60945 | 34239 ft | 470 kts | 347° |
| 2026-05-05 10:57 | -18.98719 | -47.61877 | 34214 ft | 474 kts | 346° |
| 2026-05-05 10:58 | -18.92153 | -47.62787 | 34235 ft | 476 kts | 346° |
| 2026-05-05 10:58 | -18.85575 | -47.63695 | 34227 ft | 477 kts | 346° |
| 2026-05-05 10:59 | -18.79040 | -47.64600 | 34225 ft | 476 kts | 346° |
| 2026-05-05 10:59 | -18.72450 | -47.65516 | 34220 ft | 478 kts | 346° |
| 2026-05-05 11:00 | -18.65838 | -47.66435 | 34224 ft | 479 kts | 346° |
| 2026-05-05 11:00 | -18.59222 | -47.67353 | 34225 ft | 479 kts | 346° |
| 2026-05-05 11:01 | -18.52615 | -47.68323 | 34208 ft | 479 kts | 346° |
| 2026-05-05 11:01 | -18.45986 | -47.69305 | 34217 ft | 482 kts | 346° |
| 2026-05-05 11:02 | -18.39341 | -47.70274 | 34217 ft | 482 kts | 346° |
| 2026-05-05 11:02 | -18.32736 | -47.71244 | 34212 ft | 482 kts | 346° |
| 2026-05-05 11:03 | -18.26198 | -47.72596 | 34204 ft | 478 kts | 340° |
| 2026-05-05 11:03 | -18.19713 | -47.74190 | 34213 ft | 479 kts | 340° |
| 2026-05-05 11:04 | -18.13217 | -47.75764 | 34212 ft | 479 kts | 340° |
| 2026-05-05 11:04 | -18.06725 | -47.77343 | 34216 ft | 478 kts | 340° |
| 2026-05-05 11:05 | -18.00225 | -47.78919 | 34210 ft | 481 kts | 340° |
| 2026-05-05 11:05 | -17.93693 | -47.80498 | 34217 ft | 482 kts | 340° |
| 2026-05-05 11:06 | -17.87133 | -47.82087 | 34224 ft | 483 kts | 340° |
| 2026-05-05 11:06 | -17.80647 | -47.83654 | 34196 ft | 478 kts | 340° |
| 2026-05-05 11:07 | -17.74209 | -47.85211 | 34005 ft | 471 kts | 340° |
| 2026-05-05 11:07 | -17.71045 | -47.85973 | 33715 ft | 463 kts | 340° |
| 2026-05-05 11:07 | -17.67925 | -47.86750 | 33447 ft | 458 kts | 340° |
| 2026-05-05 11:07 | -17.64831 | -47.87506 | 33190 ft | 455 kts | 340° |
| 2026-05-05 11:08 | -17.61755 | -47.88243 | 32937 ft | 451 kts | 341° |
| 2026-05-05 11:08 | -17.58704 | -47.88978 | 32676 ft | 448 kts | 341° |
| 2026-05-05 11:08 | -17.55683 | -47.89709 | 32283 ft | 443 kts | 341° |
| 2026-05-05 11:08 | -17.52696 | -47.90439 | 31792 ft | 440 kts | 341° |
| 2026-05-05 11:09 | -17.49717 | -47.91165 | 31276 ft | 438 kts | 342° |
| 2026-05-05 11:09 | -17.46752 | -47.91876 | 30774 ft | 435 kts | 342° |
| 2026-05-05 11:09 | -17.43809 | -47.92583 | 30276 ft | 433 kts | 343° |
| 2026-05-05 11:09 | -17.40882 | -47.93289 | 29671 ft | 430 kts | 343° |
| 2026-05-05 11:10 | -17.37970 | -47.93989 | 29109 ft | 427 kts | 343° |
| 2026-05-05 11:10 | -17.35084 | -47.94680 | 28576 ft | 424 kts | 343° |
| 2026-05-05 11:10 | -17.32215 | -47.95360 | 28060 ft | 420 kts | 343° |
| 2026-05-05 11:10 | -17.29415 | -47.96030 | 27590 ft | 416 kts | 343° |
| 2026-05-05 11:11 | -17.26597 | -47.96712 | 27082 ft | 413 kts | 343° |
| 2026-05-05 11:11 | -17.23806 | -47.97381 | 26575 ft | 411 kts | 343° |
| 2026-05-05 11:11 | -17.21022 | -47.98050 | 26084 ft | 408 kts | 344° |
| 2026-05-05 11:11 | -17.18265 | -47.98712 | 25614 ft | 405 kts | 344° |
| 2026-05-05 11:12 | -17.15526 | -47.99370 | 25140 ft | 403 kts | 344° |
| 2026-05-05 11:12 | -17.12792 | -48.00021 | 24643 ft | 401 kts | 345° |
| 2026-05-05 11:12 | -17.10089 | -48.00658 | 24159 ft | 397 kts | 345° |
| 2026-05-05 11:12 | -17.07400 | -48.01300 | 23665 ft | 394 kts | 345° |
| 2026-05-05 11:13 | -17.04731 | -48.01934 | 23107 ft | 391 kts | 345° |
| 2026-05-05 11:13 | -17.02095 | -48.02565 | 22605 ft | 386 kts | 345° |
| 2026-05-05 11:13 | -16.99488 | -48.03187 | 22098 ft | 383 kts | 345° |
| 2026-05-05 11:13 | -16.96905 | -48.03812 | 21617 ft | 379 kts | 345° |
| 2026-05-05 11:14 | -16.95173 | -48.04231 | 21283 ft | 376 kts | 345° |
| 2026-05-05 11:14 | -16.92672 | -48.04835 | 20821 ft | 372 kts | 345° |
| 2026-05-05 11:14 | -16.90160 | -48.05438 | 20376 ft | 368 kts | 345° |
| 2026-05-05 11:14 | -16.87647 | -48.06044 | 19934 ft | 364 kts | 345° |
| 2026-05-05 11:15 | -16.85227 | -48.06620 | 19504 ft | 360 kts | 345° |
| 2026-05-05 11:15 | -16.82788 | -48.07198 | 19070 ft | 357 kts | 345° |
| 2026-05-05 11:15 | -16.80375 | -48.07772 | 18653 ft | 354 kts | 345° |
| 2026-05-05 11:15 | -16.77986 | -48.08351 | 18202 ft | 350 kts | 345° |
| 2026-05-05 11:16 | -16.75623 | -48.08906 | 17749 ft | 346 kts | 346° |
| 2026-05-05 11:16 | -16.73280 | -48.09431 | 17318 ft | 342 kts | 346° |
| 2026-05-05 11:16 | -16.70966 | -48.09942 | 16918 ft | 337 kts | 347° |
| 2026-05-05 11:16 | -16.68685 | -48.10451 | 16545 ft | 334 kts | 347° |
| 2026-05-05 11:17 | -16.66413 | -48.10967 | 16182 ft | 334 kts | 347° |
| 2026-05-05 11:17 | -16.64138 | -48.11477 | 15821 ft | 334 kts | 347° |
| 2026-05-05 11:17 | -16.61859 | -48.11985 | 15455 ft | 335 kts | 347° |
| 2026-05-05 11:17 | -16.59579 | -48.12495 | 15082 ft | 336 kts | 347° |
| 2026-05-05 11:18 | -16.57288 | -48.13010 | 14699 ft | 337 kts | 348° |
| 2026-05-05 11:18 | -16.54987 | -48.13528 | 14306 ft | 339 kts | 348° |
| 2026-05-05 11:18 | -16.52671 | -48.14053 | 13906 ft | 341 kts | 348° |
| 2026-05-05 11:18 | -16.50367 | -48.14569 | 13469 ft | 336 kts | 348° |
| 2026-05-05 11:19 | -16.48096 | -48.15082 | 13059 ft | 331 kts | 348° |
| 2026-05-05 11:19 | -16.45860 | -48.15589 | 12654 ft | 326 kts | 348° |
| 2026-05-05 11:19 | -16.43658 | -48.16088 | 12257 ft | 322 kts | 348° |
| 2026-05-05 11:19 | -16.41485 | -48.16583 | 11876 ft | 317 kts | 348° |
| 2026-05-05 11:20 | -16.39341 | -48.17073 | 11488 ft | 313 kts | 348° |
| 2026-05-05 11:20 | -16.37233 | -48.17557 | 11097 ft | 309 kts | 348° |
| 2026-05-05 11:20 | -16.35130 | -48.18032 | 10725 ft | 311 kts | 349° |
| 2026-05-05 11:20 | -16.33013 | -48.18509 | 10376 ft | 312 kts | 348° |
| 2026-05-05 11:21 | -16.30894 | -48.18988 | 10034 ft | 310 kts | 348° |
| 2026-05-05 11:21 | -16.28799 | -48.19457 | 9670 ft | 306 kts | 349° |
| 2026-05-05 11:21 | -16.26727 | -48.19920 | 9252 ft | 303 kts | 349° |
| 2026-05-05 11:21 | -16.24671 | -48.20380 | 8848 ft | 300 kts | 349° |
| 2026-05-05 11:22 | -16.22633 | -48.20831 | 8457 ft | 298 kts | 350° |
| 2026-05-05 11:22 | -16.20630 | -48.21280 | 8220 ft | 290 kts | 349° |
| 2026-05-05 11:22 | -16.18707 | -48.21718 | 8142 ft | 275 kts | 350° |
| 2026-05-05 11:22 | -16.16904 | -48.22119 | 8192 ft | 258 kts | 351° |
| 2026-05-05 11:23 | -16.15143 | -48.22374 | 8158 ft | 254 kts | 5° |
| 2026-05-05 11:23 | -16.13419 | -48.22064 | 7978 ft | 250 kts | 17° |
| 2026-05-05 11:23 | -16.11741 | -48.21610 | 7754 ft | 248 kts | 18° |
| 2026-05-05 11:23 | -16.10071 | -48.21156 | 7510 ft | 247 kts | 17° |
| 2026-05-05 11:24 | -16.08418 | -48.20716 | 7271 ft | 244 kts | 17° |
| 2026-05-05 11:24 | -16.06774 | -48.20284 | 7016 ft | 243 kts | 17° |
| 2026-05-05 11:24 | -16.05157 | -48.19862 | 6689 ft | 241 kts | 17° |
| 2026-05-05 11:24 | -16.03520 | -48.19438 | 6331 ft | 238 kts | 18° |
| 2026-05-05 11:25 | -16.01922 | -48.19027 | 6121 ft | 236 kts | 18° |
| 2026-05-05 11:25 | -16.00344 | -48.18619 | 5982 ft | 237 kts | 18° |
| 2026-05-05 11:25 | -15.98705 | -48.18305 | 5924 ft | 239 kts | 6° |
| 2026-05-05 11:25 | -15.97033 | -48.18380 | 5826 ft | 240 kts | 0° |
| 2026-05-05 11:26 | -15.95369 | -48.18507 | 5651 ft | 238 kts | 2° |
| 2026-05-05 11:26 | -15.93783 | -48.18301 | 5450 ft | 230 kts | 27° |
| 2026-05-05 11:26 | -15.92560 | -48.17329 | 5294 ft | 220 kts | 57° |
| 2026-05-05 11:26 | -15.91760 | -48.15958 | 5184 ft | 219 kts | 63° |
| 2026-05-05 11:27 | -15.91024 | -48.14577 | 5093 ft | 217 kts | 62° |
| 2026-05-05 11:27 | -15.90281 | -48.13229 | 5073 ft | 212 kts | 62° |
| 2026-05-05 11:27 | -15.89617 | -48.11867 | 5088 ft | 208 kts | 70° |
| 2026-05-05 11:27 | -15.89226 | -48.10508 | 5089 ft | 194 kts | 79° |
| 2026-05-05 11:28 | -15.89031 | -48.09128 | 5104 ft | 191 kts | 83° |
| 2026-05-05 11:28 | -15.88942 | -48.07740 | 5116 ft | 190 kts | 85° |
| 2026-05-05 11:28 | -15.88862 | -48.06470 | 5155 ft | 164 kts | 85° |
| 2026-05-05 11:28 | -15.88792 | -48.05369 | 5148 ft | 144 kts | 86° |
| 2026-05-05 11:29 | -15.88730 | -48.04387 | 5157 ft | 133 kts | 86° |
| 2026-05-05 11:29 | -15.88668 | -48.03427 | 5154 ft | 133 kts | 86° |
| 2026-05-05 11:29 | -15.88607 | -48.02466 | 5131 ft | 133 kts | 86° |
| 2026-05-05 11:29 | -15.88545 | -48.01508 | 5013 ft | 133 kts | 85° |
| 2026-05-05 11:30 | -15.88484 | -48.00554 | 4840 ft | 132 kts | 85° |
| 2026-05-05 11:30 | -15.88424 | -47.99593 | 4659 ft | 136 kts | 85° |
| 2026-05-05 11:30 | -15.88364 | -47.98611 | 4509 ft | 136 kts | 85° |
| 2026-05-05 11:30 | -15.88303 | -47.97627 | 4251 ft | 138 kts | 86° |
| 2026-05-05 11:31 | -15.88242 | -47.96622 | 4065 ft | 139 kts | 86° |
| 2026-05-05 11:31 | -15.88169 | -47.95609 | 3834 ft | 141 kts | 86° |
| 2026-05-05 11:31 | -15.88101 | -47.94591 | 3659 ft | 142 kts | 88° |
| 2026-05-05 11:31 | -15.88033 | -47.93571 | 3516 ft | 137 kts | 89° |
| 2026-05-05 11:32 | -15.87984 | -47.92721 | 3483 ft | 93 kts | 86° |
| 2026-05-05 11:32 | -15.87952 | -47.92232 | 3479 ft | 44 kts | 87° |
| 2026-05-05 11:32 | -15.87945 | -47.92074 | 3477 ft | 5 kts | 87° |
| 2026-05-05 11:32 | -15.87941 | -47.92021 | 3476 ft | 10 kts | 84° |
| 2026-05-05 11:33 | -15.87927 | -47.91937 | 3475 ft | 14 kts | 77° |
| 2026-05-05 11:33 | -15.87887 | -47.91828 | 3473 ft | 18 kts | 62° |
| 2026-05-05 11:33 | -15.87816 | -47.91712 | 3468 ft | 19 kts | 56° |
| 2026-05-05 11:33 | -15.87753 | -47.91614 | 3465 ft | 13 kts | 56° |
| 2026-05-05 11:34 | -15.87685 | -47.91551 | 3467 ft | 15 kts | 5° |
| 2026-05-05 11:34 | -15.87572 | -47.91558 | 3472 ft | 18 kts | 356° |
| 2026-05-05 11:34 | -15.87464 | -47.91565 | 3474 ft | 5 kts | 356° |
| 2026-05-05 11:34 | -15.87416 | -47.91568 | 3476 ft | 8 kts | 356° |
| 2026-05-05 11:35 | -15.87353 | -47.91572 | 3477 ft | 10 kts | 356° |
| 2026-05-05 11:35 | -15.87273 | -47.91578 | 3477 ft | 13 kts | 355° |
| 2026-05-05 11:35 | -15.87180 | -47.91586 | 3477 ft | 15 kts | 355° |
| 2026-05-05 11:35 | -15.87108 | -47.91591 | 3475 ft | 5 kts | 358° |
| 2026-05-05 11:36 | -15.87068 | -47.91597 | 3474 ft | 7 kts | 329° |
| 2026-05-05 11:36 | -15.87053 | -47.91650 | 3478 ft | 9 kts | 268° |
| 2026-05-05 11:36 | -15.87059 | -47.91725 | 3476 ft | 11 kts | 265° |
| 2026-05-05 11:36 | -15.87066 | -47.91813 | 3476 ft | 13 kts | 266° |
| 2026-05-05 11:37 | -15.87070 | -47.91881 | 3477 ft | 2 kts | 266° |
| 2026-05-05 11:37 | -15.87075 | -47.91901 | 3477 ft | 4 kts | 228° |
| 2026-05-05 11:37 | -15.87109 | -47.91908 | 3477 ft | 6 kts | 175° |
| 2026-05-05 11:37 | -15.87127 | -47.91906 | 3477 ft | 0 kts | 175° |